Главная страница
METAR-TAF:

METAR-TAF

Аэропорты :

Мариехамн, Финляндия

широта: 60-07N, долгота: 019-54E, высота над уровнем моря: 6 м

Текущие метеонаблюдения

Эта сводка был подготовлена 40 минут назад, в 17:50 UTC
Ветер 8 Узел от западный, изменяющийся между юго-западный и северо-западный
Температура 10°C
Влажность 76%
Давление 1007 hPa
Видимость 10 км и более
Нет облачности ниже 1500 м, и нет кучево-дождевой облачности

METAR: EFMA 221750Z AUTO 26008KT 220V310 CAVOK 10/06 Q1007

Время: 21:30 (18:30 UTC)

Прогноз

Эта сводка был подготовлена 1 час и 7 минут назад, в 17:23 UTC
Прогноз действительный с 22-го 18 UTC до 23-го 03 UTC
Ветер 12 Узел от юго-западный
Видимость 10 км и более
Нет облачности ниже 1500 м, и нет кучево-дождевой облачности
временами
С 22-го 18 UTC до 22-го 21 UTC
Ветер 15 Узел от юго-западный с порывами до 25 Узел

TAF: EFMA 221723Z 2218/2303 23012KT CAVOK TEMPO 2218/2221 23015G25KT

Метеонаблюдения и прогнозы для более 4000 аэропортов (сводки METAR и TAF).

Имеющиеся станции представлены на карте желтыми и красными точками.

Чтобы увидеть название станции, наведите на нее мышь.

Затем щелкните, чтобы увидеть метеонаблюдения и метеопрогнозы.

Управление картой: чтобы увеличить масштаб, щелкните зеленые кнопки с черным крестиком; чтобы уменьшить масштаб, щелкните зеленую кнопку с тире; для просмотра соседних карт щелкайте зеленые стрелки.


METAR-TAF: